createdAt,value
2022-10-23T00:03:53.523Z,87.0
2022-10-23T00:08:53.535Z,87.0
2022-10-23T00:13:53.531Z,87.0
2022-10-23T00:18:53.528Z,87.5
2022-10-23T00:23:53.541Z,87.5
2022-10-23T00:28:53.535Z,88.0
2022-10-23T00:33:53.531Z,87.5
2022-10-23T00:38:53.558Z,87.5
2022-10-23T00:43:53.542Z,87.5
2022-10-23T00:48:53.550Z,87.5
2022-10-23T00:54:01.354Z,88.0
2022-10-23T00:58:53.566Z,88.0
2022-10-23T01:03:53.558Z,88.0
2022-10-23T01:08:53.552Z,88.0
2022-10-23T01:13:53.649Z,88.0
2022-10-23T01:18:53.558Z,88.5
2022-10-23T01:23:53.556Z,88.5
2022-10-23T01:28:53.568Z,89.0
2022-10-23T01:33:53.567Z,88.5
2022-10-23T01:38:53.627Z,88.5
2022-10-23T01:43:53.571Z,89.0
2022-10-23T01:48:53.577Z,89.0
2022-10-23T01:53:53.586Z,89.0
2022-10-23T01:58:53.578Z,89.0
2022-10-23T02:03:53.620Z,89.0
2022-10-23T02:08:53.593Z,89.0
2022-10-23T02:13:53.592Z,89.0
2022-10-23T02:18:53.598Z,89.0
2022-10-23T02:23:56.039Z,89.0
2022-10-23T02:28:53.667Z,89.0
2022-10-23T02:33:53.606Z,89.0
2022-10-23T02:38:53.602Z,89.5
2022-10-23T02:43:53.633Z,89.0
2022-10-23T02:48:53.603Z,89.5
2022-10-23T02:53:53.636Z,89.5
2022-10-23T02:58:53.614Z,89.5
2022-10-23T03:03:53.610Z,90.0
2022-10-23T03:08:53.614Z,90.0
2022-10-23T03:13:53.624Z,90.0
2022-10-23T03:18:53.623Z,90.0
2022-10-23T03:23:53.629Z,90.5
2022-10-23T03:28:53.635Z,90.5
2022-10-23T03:33:53.634Z,90.5
2022-10-23T03:38:53.650Z,91.0
2022-10-23T03:43:53.659Z,91.0
2022-10-23T03:48:53.637Z,91.0
2022-10-23T03:53:53.638Z,91.0
2022-10-23T03:58:53.641Z,91.0
2022-10-23T04:03:53.653Z,91.5
2022-10-23T04:08:53.656Z,91.5
2022-10-23T04:13:53.653Z,91.5
2022-10-23T04:18:53.657Z,92.0
2022-10-23T04:23:53.671Z,92.0
2022-10-23T04:28:53.663Z,92.0
2022-10-23T04:33:53.739Z,92.0
2022-10-23T04:38:53.673Z,92.0
2022-10-23T04:43:53.673Z,92.0
2022-10-23T04:48:53.682Z,92.0
2022-10-23T04:53:53.686Z,92.0
2022-10-23T04:58:53.713Z,92.0
2022-10-23T05:03:53.681Z,92.5
2022-10-23T05:08:53.689Z,92.5
2022-10-23T05:13:53.699Z,92.5
2022-10-23T05:18:53.703Z,92.5
2022-10-23T05:23:53.772Z,92.5
2022-10-23T05:28:53.708Z,92.5
2022-10-23T05:33:53.702Z,93.0
2022-10-23T05:38:53.717Z,93.0
2022-10-23T05:43:53.712Z,93.0
2022-10-23T05:48:53.762Z,93.0
2022-10-23T05:53:53.717Z,93.0
2022-10-23T05:58:53.722Z,93.0
2022-10-23T06:03:53.725Z,93.0
2022-10-23T06:08:53.748Z,92.5
2022-10-23T06:13:53.791Z,92.5
2022-10-23T06:18:53.732Z,92.5
2022-10-23T06:23:53.734Z,92.5
2022-10-23T06:28:53.739Z,92.5
2022-10-23T06:33:53.743Z,92.5
2022-10-23T06:38:53.829Z,92.5
2022-10-23T06:43:53.748Z,92.5
2022-10-23T06:48:53.746Z,92.5
2022-10-23T06:53:53.754Z,92.5
2022-10-23T06:58:53.762Z,92.5
2022-10-23T07:03:53.765Z,92.5
2022-10-23T07:08:53.762Z,92.5
2022-10-23T07:13:53.766Z,92.5
2022-10-23T07:18:53.765Z,92.5
2022-10-23T07:23:53.773Z,92.5
2022-10-23T07:28:53.778Z,92.5
2022-10-23T07:33:53.774Z,93.0
2022-10-23T07:38:53.782Z,93.0
2022-10-23T07:43:53.785Z,93.0
2022-10-23T07:48:53.784Z,92.5
2022-10-23T07:53:53.797Z,92.5
2022-10-23T07:58:53.805Z,92.5
2022-10-23T08:03:53.799Z,92.5
2022-10-23T08:08:53.802Z,92.5
2022-10-23T08:13:53.807Z,92.5
2022-10-23T08:18:53.809Z,92.5
2022-10-23T08:23:53.839Z,92.5
2022-10-23T08:28:53.815Z,92.0
2022-10-23T08:33:53.814Z,92.0
2022-10-23T08:38:53.815Z,92.0
2022-10-23T08:43:53.818Z,91.5
2022-10-23T08:48:53.827Z,91.0
2022-10-23T08:53:53.839Z,91.0
2022-10-23T08:58:53.865Z,91.0
2022-10-23T09:03:53.838Z,90.5
2022-10-23T09:08:53.844Z,90.0
2022-10-23T09:13:53.851Z,89.5
2022-10-23T09:18:53.851Z,89.0
2022-10-23T09:23:53.848Z,89.0
2022-10-23T09:28:53.853Z,88.5
2022-10-23T09:33:53.872Z,88.0
2022-10-23T09:38:53.866Z,88.0
2022-10-23T09:43:53.870Z,88.0
2022-10-23T09:48:53.873Z,88.0
2022-10-23T09:53:53.881Z,87.5
2022-10-23T09:58:53.868Z,87.0
2022-10-23T10:03:53.893Z,86.5
2022-10-23T10:08:53.881Z,86.5
2022-10-23T10:13:53.887Z,85.5
2022-10-23T10:18:53.888Z,85.0
2022-10-23T10:23:53.891Z,84.0
2022-10-23T10:28:53.894Z,84.0
2022-10-23T10:33:53.916Z,83.5
2022-10-23T10:38:53.966Z,83.5
2022-10-23T10:43:53.904Z,82.5
2022-10-23T10:48:53.907Z,83.0
2022-10-23T10:53:53.906Z,83.0
2022-10-23T10:58:53.943Z,82.5
2022-10-23T11:03:53.916Z,82.0
2022-10-23T11:13:53.941Z,81.5
2022-10-23T11:18:53.927Z,81.0
2022-10-23T11:23:53.939Z,80.5
2022-10-23T11:28:53.943Z,80.0
2022-10-23T11:33:53.943Z,79.5
2022-10-23T11:38:53.943Z,78.0
2022-10-23T11:43:53.954Z,78.0
2022-10-23T11:48:53.946Z,77.0
2022-10-23T11:53:53.952Z,76.5
2022-10-23T11:58:53.958Z,76.0
2022-10-23T12:03:53.972Z,75.0
2022-10-23T12:08:53.969Z,74.5
2022-10-23T12:13:53.977Z,74.0
2022-10-23T12:18:53.977Z,73.5
2022-10-23T12:23:53.981Z,72.5
2022-10-23T12:28:53.977Z,72.5
2022-10-23T12:33:53.992Z,71.0
2022-10-23T12:38:53.984Z,72.0
2022-10-23T12:43:53.994Z,71.5
2022-10-23T12:48:54.007Z,71.5
2022-10-23T12:53:54.008Z,71.5
2022-10-23T12:58:54.018Z,71.0
2022-10-23T13:03:54.009Z,71.0
2022-10-23T13:08:54.008Z,71.5
2022-10-23T13:13:54.026Z,71.0
2022-10-23T13:18:54.018Z,71.0
2022-10-23T13:23:54.024Z,71.0
2022-10-23T13:28:54.029Z,71.0
2022-10-23T13:33:54.028Z,70.5
2022-10-23T13:38:54.034Z,70.5
2022-10-23T13:43:54.025Z,71.0
2022-10-23T13:48:54.043Z,71.0
2022-10-23T13:53:54.040Z,70.5
2022-10-23T13:58:54.038Z,70.5
2022-10-23T14:03:54.049Z,71.0
2022-10-23T14:08:54.051Z,71.0
2022-10-23T14:13:54.052Z,71.5
2022-10-23T14:18:54.053Z,71.0
2022-10-23T14:23:54.057Z,71.5
2022-10-23T14:28:54.054Z,71.5
2022-10-23T14:33:54.060Z,71.0
2022-10-23T14:38:55.724Z,70.5
2022-10-23T14:43:54.079Z,71.0
2022-10-23T14:48:57.510Z,71.0
2022-10-23T14:53:56.454Z,71.0
2022-10-23T14:58:54.071Z,71.5
2022-10-23T15:03:54.074Z,71.0
2022-10-23T15:08:54.095Z,71.5
2022-10-23T15:13:54.082Z,71.5
2022-10-23T15:18:54.087Z,71.5
2022-10-23T15:23:54.094Z,72.0
2022-10-23T15:28:54.091Z,72.0
2022-10-23T15:33:54.098Z,72.0
2022-10-23T15:38:54.096Z,72.0
2022-10-23T15:43:54.116Z,72.0
2022-10-23T15:48:54.122Z,72.5
2022-10-23T15:53:54.107Z,72.5
2022-10-23T15:58:54.111Z,73.0
2022-10-23T16:03:54.120Z,73.0
2022-10-23T16:13:54.119Z,73.5
2022-10-23T16:18:54.121Z,73.5
2022-10-23T16:23:54.127Z,74.0
2022-10-23T16:28:54.131Z,74.0
2022-10-23T16:33:54.157Z,74.0
2022-10-23T16:38:54.127Z,74.5
2022-10-23T16:43:54.135Z,74.5
2022-10-23T16:48:54.134Z,74.5
2022-10-23T16:53:54.163Z,75.0
2022-10-23T16:58:54.187Z,75.5
2022-10-23T17:03:54.164Z,75.5
2022-10-23T17:08:54.154Z,75.5
2022-10-23T17:13:58.502Z,76.0
2022-10-23T17:18:54.152Z,76.5
2022-10-23T17:23:54.200Z,76.5
2022-10-23T17:28:54.156Z,77.0
2022-10-23T17:33:54.164Z,77.0
2022-10-23T17:38:54.163Z,77.0
2022-10-23T17:43:54.163Z,77.5
2022-10-23T17:48:54.222Z,78.0
2022-10-23T17:53:54.166Z,78.0
2022-10-23T17:58:54.180Z,78.0
2022-10-23T18:03:54.176Z,78.0
2022-10-23T18:08:54.176Z,78.5
2022-10-23T18:13:54.271Z,78.5
2022-10-23T18:18:54.189Z,79.0
2022-10-23T18:23:54.187Z,79.0
2022-10-23T18:28:54.187Z,79.0
2022-10-23T18:33:54.191Z,79.0
2022-10-23T18:43:54.206Z,79.0
2022-10-23T18:48:54.197Z,79.0
2022-10-23T18:53:54.206Z,79.0
2022-10-23T18:58:54.201Z,79.0
2022-10-23T19:03:54.207Z,78.5
2022-10-23T19:08:54.213Z,78.5
2022-10-23T19:13:54.215Z,78.5
2022-10-23T19:18:54.215Z,78.5
2022-10-23T19:23:54.245Z,78.0
2022-10-23T19:28:54.241Z,78.0
2022-10-23T19:33:54.408Z,78.0
2022-10-23T19:38:54.236Z,78.0
2022-10-23T19:43:54.237Z,77.0
2022-10-23T19:48:54.255Z,76.0
2022-10-23T19:53:54.252Z,75.5
2022-10-23T19:58:54.250Z,75.5
2022-10-23T20:03:54.256Z,76.0
2022-10-23T20:08:54.259Z,76.5
2022-10-23T20:13:54.253Z,77.5
2022-10-23T20:18:54.258Z,77.5
2022-10-23T20:23:54.274Z,78.0
2022-10-23T20:28:54.256Z,78.0
2022-10-23T20:33:54.272Z,78.5
2022-10-23T20:38:54.265Z,79.0
2022-10-23T20:43:54.287Z,79.5
2022-10-23T20:48:54.280Z,80.0
2022-10-23T20:53:54.267Z,80.5
2022-10-23T20:58:54.266Z,81.0
2022-10-23T21:03:54.278Z,81.5
2022-10-23T21:08:54.269Z,82.0
2022-10-23T21:13:54.280Z,82.5
2022-10-23T21:18:54.279Z,83.5
2022-10-23T21:23:54.283Z,84.0
2022-10-23T21:29:06.853Z,84.5
2022-10-23T21:33:54.291Z,84.5
2022-10-23T21:38:54.289Z,84.5
2022-10-23T21:43:54.296Z,84.5
2022-10-23T21:53:54.295Z,85.5
2022-10-23T21:58:54.347Z,85.5
2022-10-23T22:03:54.308Z,86.0
2022-10-23T22:08:54.312Z,86.0
2022-10-23T22:13:54.304Z,86.0
2022-10-23T22:18:54.309Z,86.5
2022-10-23T22:23:54.398Z,86.5
2022-10-23T22:28:54.330Z,86.5
2022-10-23T22:33:54.326Z,86.5
2022-10-23T22:38:54.327Z,86.5
2022-10-23T22:43:54.326Z,86.5
2022-10-23T22:48:54.422Z,86.5
2022-10-23T22:53:54.325Z,86.5
2022-10-23T22:58:54.333Z,86.5
2022-10-23T23:03:54.334Z,86.5
2022-10-23T23:08:54.342Z,86.5
2022-10-23T23:13:54.417Z,86.0
2022-10-23T23:18:54.344Z,86.0
2022-10-23T23:23:54.344Z,86.0
2022-10-23T23:28:54.355Z,86.0
2022-10-23T23:33:54.352Z,86.0
2022-10-23T23:38:54.380Z,86.0
2022-10-23T23:43:54.383Z,86.0
2022-10-23T23:48:54.354Z,86.0
2022-10-23T23:53:54.379Z,86.0
2022-10-23T23:58:54.366Z,86.0
